sensor_id;sensor_type;location;lat;lon;timestamp;temperature;humidity
16970;DHT22;8601;48.718;8.992;2023-05-17T00:02:04;6.90;99.90
16970;DHT22;8601;48.718;8.992;2023-05-17T00:04:31;6.90;99.80
16970;DHT22;8601;48.718;8.992;2023-05-17T00:06:59;6.90;99.90
16970;DHT22;8601;48.718;8.992;2023-05-17T00:09:27;6.80;99.90
16970;DHT22;8601;48.718;8.992;2023-05-17T00:11:53;6.80;99.90
16970;DHT22;8601;48.718;8.992;2023-05-17T00:14:20;6.80;99.90
16970;DHT22;8601;48.718;8.992;2023-05-17T00:16:47;6.80;99.90
16970;DHT22;8601;48.718;8.992;2023-05-17T00:19:15;6.70;99.90
16970;DHT22;8601;48.718;8.992;2023-05-17T00:21:41;6.70;99.90
16970;DHT22;8601;48.718;8.992;2023-05-17T00:24:10;6.70;99.90
16970;DHT22;8601;48.718;8.992;2023-05-17T00:26:37;6.70;99.90
16970;DHT22;8601;48.718;8.992;2023-05-17T00:29:04;6.70;99.90
16970;DHT22;8601;48.718;8.992;2023-05-17T00:31:30;6.60;99.90
16970;DHT22;8601;48.718;8.992;2023-05-17T00:33:57;6.60;99.90
16970;DHT22;8601;48.718;8.992;2023-05-17T00:36:24;6.60;99.90
16970;DHT22;8601;48.718;8.992;2023-05-17T00:38:51;6.60;99.90
16970;DHT22;8601;48.718;8.992;2023-05-17T00:41:19;6.50;99.90
16970;DHT22;8601;48.718;8.992;2023-05-17T00:43:46;6.50;99.90
16970;DHT22;8601;48.718;8.992;2023-05-17T00:46:13;6.50;99.90
16970;DHT22;8601;48.718;8.992;2023-05-17T00:48:40;6.50;99.90
16970;DHT22;8601;48.718;8.992;2023-05-17T00:51:08;6.50;99.90
16970;DHT22;8601;48.718;8.992;2023-05-17T00:53:35;6.40;99.90
16970;DHT22;8601;48.718;8.992;2023-05-17T00:56:02;6.50;99.90
16970;DHT22;8601;48.718;8.992;2023-05-17T00:58:31;6.40;99.90
16970;DHT22;8601;48.718;8.992;2023-05-17T01:00:59;6.40;99.90
16970;DHT22;8601;48.718;8.992;2023-05-17T01:03:26;6.50;99.90
16970;DHT22;8601;48.718;8.992;2023-05-17T01:05:54;6.50;99.90
16970;DHT22;8601;48.718;8.992;2023-05-17T01:08:21;6.50;99.90
16970;DHT22;8601;48.718;8.992;2023-05-17T01:10:53;6.50;99.90
16970;DHT22;8601;48.718;8.992;2023-05-17T01:13:25;6.50;99.90
16970;DHT22;8601;48.718;8.992;2023-05-17T01:16:01;6.40;99.90
16970;DHT22;8601;48.718;8.992;2023-05-17T01:18:36;6.40;99.90
16970;DHT22;8601;48.718;8.992;2023-05-17T01:21:11;6.30;99.90
16970;DHT22;8601;48.718;8.992;2023-05-17T01:23:47;6.40;99.90
16970;DHT22;8601;48.718;8.992;2023-05-17T01:26:19;6.30;99.90
16970;DHT22;8601;48.718;8.992;2023-05-17T01:28:52;6.40;99.90
16970;DHT22;8601;48.718;8.992;2023-05-17T01:31:21;6.40;99.90
16970;DHT22;8601;48.718;8.992;2023-05-17T01:33:48;6.30;99.90
16970;DHT22;8601;48.718;8.992;2023-05-17T01:36:15;6.30;99.90
16970;DHT22;8601;48.718;8.992;2023-05-17T01:38:42;6.40;99.90
16970;DHT22;8601;48.718;8.992;2023-05-17T01:41:14;6.30;99.90
16970;DHT22;8601;48.718;8.992;2023-05-17T01:43:46;6.30;99.90
16970;DHT22;8601;48.718;8.992;2023-05-17T01:46:22;6.40;99.90
16970;DHT22;8601;48.718;8.992;2023-05-17T01:48:55;6.40;99.90
16970;DHT22;8601;48.718;8.992;2023-05-17T01:51:30;6.40;99.90
16970;DHT22;8601;48.718;8.992;2023-05-17T01:54:01;6.40;99.90
16970;DHT22;8601;48.718;8.992;2023-05-17T01:56:34;6.30;99.90
16970;DHT22;8601;48.718;8.992;2023-05-17T01:59:03;6.40;99.90
16970;DHT22;8601;48.718;8.992;2023-05-17T02:01:34;6.40;99.90
16970;DHT22;8601;48.718;8.992;2023-05-17T02:04:02;6.40;99.90
16970;DHT22;8601;48.718;8.992;2023-05-17T02:06:29;6.30;99.90
16970;DHT22;8601;48.718;8.992;2023-05-17T02:08:56;6.40;99.90
16970;DHT22;8601;48.718;8.992;2023-05-17T02:11:23;6.40;99.90
16970;DHT22;8601;48.718;8.992;2023-05-17T02:13:50;6.40;99.90
16970;DHT22;8601;48.718;8.992;2023-05-17T02:16:16;6.30;99.90
16970;DHT22;8601;48.718;8.992;2023-05-17T02:18:45;6.20;99.90
16970;DHT22;8601;48.718;8.992;2023-05-17T02:21:11;6.30;99.90
16970;DHT22;8601;48.718;8.992;2023-05-17T02:23:38;6.20;99.90
16970;DHT22;8601;48.718;8.992;2023-05-17T02:26:05;6.20;99.90
16970;DHT22;8601;48.718;8.992;2023-05-17T02:28:32;6.10;99.90
16970;DHT22;8601;48.718;8.992;2023-05-17T02:30:59;6.00;99.90
16970;DHT22;8601;48.718;8.992;2023-05-17T02:33:26;6.00;99.90
16970;DHT22;8601;48.718;8.992;2023-05-17T02:35:54;6.00;99.90
16970;DHT22;8601;48.718;8.992;2023-05-17T02:38:21;6.00;99.90
16970;DHT22;8601;48.718;8.992;2023-05-17T02:40:49;6.00;99.90
16970;DHT22;8601;48.718;8.992;2023-05-17T02:43:16;6.00;99.90
16970;DHT22;8601;48.718;8.992;2023-05-17T02:45:43;6.00;99.90
16970;DHT22;8601;48.718;8.992;2023-05-17T02:48:10;6.00;99.90
16970;DHT22;8601;48.718;8.992;2023-05-17T02:50:37;6.00;99.90
16970;DHT22;8601;48.718;8.992;2023-05-17T02:53:05;5.90;99.90
16970;DHT22;8601;48.718;8.992;2023-05-17T02:55:32;6.00;99.90
16970;DHT22;8601;48.718;8.992;2023-05-17T02:57:59;6.00;99.90
16970;DHT22;8601;48.718;8.992;2023-05-17T03:00:26;6.00;99.90
16970;DHT22;8601;48.718;8.992;2023-05-17T03:02:53;6.00;99.90
16970;DHT22;8601;48.718;8.992;2023-05-17T03:05:20;5.90;99.90
16970;DHT22;8601;48.718;8.992;2023-05-17T03:07:46;5.90;99.90
16970;DHT22;8601;48.718;8.992;2023-05-17T03:10:15;5.90;99.90
16970;DHT22;8601;48.718;8.992;2023-05-17T03:12:42;5.90;99.90
16970;DHT22;8601;48.718;8.992;2023-05-17T03:15:09;5.90;99.90
16970;DHT22;8601;48.718;8.992;2023-05-17T03:17:37;5.90;99.90
16970;DHT22;8601;48.718;8.992;2023-05-17T03:20:05;5.90;99.90
16970;DHT22;8601;48.718;8.992;2023-05-17T03:22:32;5.90;99.90
16970;DHT22;8601;48.718;8.992;2023-05-17T03:24:59;5.90;99.90
16970;DHT22;8601;48.718;8.992;2023-05-17T03:27:27;6.00;99.90
16970;DHT22;8601;48.718;8.992;2023-05-17T03:29:55;5.90;99.90
16970;DHT22;8601;48.718;8.992;2023-05-17T03:32:22;5.90;99.90
16970;DHT22;8601;48.718;8.992;2023-05-17T03:34:49;5.90;99.90
16970;DHT22;8601;48.718;8.992;2023-05-17T03:37:16;5.90;99.90
16970;DHT22;8601;48.718;8.992;2023-05-17T03:39:42;5.80;99.90
16970;DHT22;8601;48.718;8.992;2023-05-17T03:42:09;5.70;99.90
16970;DHT22;8601;48.718;8.992;2023-05-17T03:44:39;5.70;99.90
16970;DHT22;8601;48.718;8.992;2023-05-17T03:47:06;5.70;99.90
16970;DHT22;8601;48.718;8.992;2023-05-17T03:49:33;5.70;99.90
16970;DHT22;8601;48.718;8.992;2023-05-17T03:52:00;5.70;99.90
16970;DHT22;8601;48.718;8.992;2023-05-17T03:54:27;5.60;99.90
16970;DHT22;8601;48.718;8.992;2023-05-17T03:56:54;5.40;99.90
16970;DHT22;8601;48.718;8.992;2023-05-17T03:59:21;5.40;99.90
16970;DHT22;8601;48.718;8.992;2023-05-17T04:01:49;5.50;99.90
16970;DHT22;8601;48.718;8.992;2023-05-17T04:04:16;5.50;99.90
16970;DHT22;8601;48.718;8.992;2023-05-17T04:06:43;5.50;99.90
16970;DHT22;8601;48.718;8.992;2023-05-17T04:09:10;5.50;99.90
16970;DHT22;8601;48.718;8.992;2023-05-17T04:11:38;5.50;99.90
16970;DHT22;8601;48.718;8.992;2023-05-17T04:14:06;5.50;99.90
16970;DHT22;8601;48.718;8.992;2023-05-17T04:16:33;5.50;99.90
16970;DHT22;8601;48.718;8.992;2023-05-17T04:19:01;5.40;99.90
16970;DHT22;8601;48.718;8.992;2023-05-17T04:21:28;5.50;99.90
16970;DHT22;8601;48.718;8.992;2023-05-17T04:23:55;5.50;99.90
16970;DHT22;8601;48.718;8.992;2023-05-17T04:26:22;5.60;99.90
16970;DHT22;8601;48.718;8.992;2023-05-17T04:28:49;5.50;99.90
16970;DHT22;8601;48.718;8.992;2023-05-17T04:31:16;5.50;99.90
16970;DHT22;8601;48.718;8.992;2023-05-17T04:33:43;5.40;99.90
16970;DHT22;8601;48.718;8.992;2023-05-17T04:36:11;5.50;99.90
16970;DHT22;8601;48.718;8.992;2023-05-17T04:38:39;5.50;99.90
16970;DHT22;8601;48.718;8.992;2023-05-17T04:41:06;5.50;99.90
16970;DHT22;8601;48.718;8.992;2023-05-17T04:43:34;5.50;99.90
16970;DHT22;8601;48.718;8.992;2023-05-17T04:46:01;5.40;99.90
16970;DHT22;8601;48.718;8.992;2023-05-17T04:48:30;5.40;99.90
16970;DHT22;8601;48.718;8.992;2023-05-17T04:50:59;5.40;99.90
16970;DHT22;8601;48.718;8.992;2023-05-17T04:53:28;5.40;99.90
16970;DHT22;8601;48.718;8.992;2023-05-17T04:55:55;5.30;99.90
16970;DHT22;8601;48.718;8.992;2023-05-17T04:58:22;5.30;99.90
16970;DHT22;8601;48.718;8.992;2023-05-17T05:00:50;5.40;99.90
16970;DHT22;8601;48.718;8.992;2023-05-17T05:03:17;5.40;99.90
16970;DHT22;8601;48.718;8.992;2023-05-17T05:05:44;5.40;99.90
16970;DHT22;8601;48.718;8.992;2023-05-17T05:08:10;5.50;99.90
16970;DHT22;8601;48.718;8.992;2023-05-17T05:10:39;5.50;99.90
16970;DHT22;8601;48.718;8.992;2023-05-17T05:13:06;5.60;99.90
16970;DHT22;8601;48.718;8.992;2023-05-17T05:15:33;5.70;99.90
16970;DHT22;8601;48.718;8.992;2023-05-17T05:18:00;5.70;99.90
16970;DHT22;8601;48.718;8.992;2023-05-17T05:20:27;5.80;99.90
16970;DHT22;8601;48.718;8.992;2023-05-17T05:22:53;5.80;99.90
16970;DHT22;8601;48.718;8.992;2023-05-17T05:25:22;5.90;99.90
16970;DHT22;8601;48.718;8.992;2023-05-17T05:27:51;5.90;99.90
16970;DHT22;8601;48.718;8.992;2023-05-17T05:30:18;6.10;99.90
16970;DHT22;8601;48.718;8.992;2023-05-17T05:32:47;6.10;99.90
16970;DHT22;8601;48.718;8.992;2023-05-17T05:35:15;6.10;99.90
16970;DHT22;8601;48.718;8.992;2023-05-17T05:37:42;6.20;99.90
16970;DHT22;8601;48.718;8.992;2023-05-17T05:40:09;6.20;99.90
16970;DHT22;8601;48.718;8.992;2023-05-17T05:42:37;6.20;99.90
16970;DHT22;8601;48.718;8.992;2023-05-17T05:45:07;6.30;99.90
16970;DHT22;8601;48.718;8.992;2023-05-17T05:47:34;6.40;99.90
16970;DHT22;8601;48.718;8.992;2023-05-17T05:50:00;6.50;99.90
16970;DHT22;8601;48.718;8.992;2023-05-17T05:52:27;6.60;99.90
16970;DHT22;8601;48.718;8.992;2023-05-17T05:54:54;6.60;99.90
16970;DHT22;8601;48.718;8.992;2023-05-17T05:57:21;6.60;99.90
16970;DHT22;8601;48.718;8.992;2023-05-17T05:59:48;6.70;99.90
16970;DHT22;8601;48.718;8.992;2023-05-17T06:02:17;6.70;99.90
16970;DHT22;8601;48.718;8.992;2023-05-17T06:04:45;6.80;99.90
16970;DHT22;8601;48.718;8.992;2023-05-17T06:07:13;6.90;99.90
16970;DHT22;8601;48.718;8.992;2023-05-17T06:09:40;6.90;99.90
16970;DHT22;8601;48.718;8.992;2023-05-17T06:12:07;7.00;99.90
16970;DHT22;8601;48.718;8.992;2023-05-17T06:14:34;7.10;99.90
16970;DHT22;8601;48.718;8.992;2023-05-17T06:17:02;7.10;99.90
16970;DHT22;8601;48.718;8.992;2023-05-17T06:19:30;7.20;99.90
16970;DHT22;8601;48.718;8.992;2023-05-17T06:21:57;7.30;99.90
16970;DHT22;8601;48.718;8.992;2023-05-17T06:24:24;9.20;99.90
16970;DHT22;8601;48.718;8.992;2023-05-17T06:26:51;9.10;99.90
16970;DHT22;8601;48.718;8.992;2023-05-17T06:29:17;8.50;99.90
16970;DHT22;8601;48.718;8.992;2023-05-17T06:31:44;8.30;99.90
16970;DHT22;8601;48.718;8.992;2023-05-17T06:34:11;8.10;99.90
16970;DHT22;8601;48.718;8.992;2023-05-17T06:36:39;7.90;99.90
16970;DHT22;8601;48.718;8.992;2023-05-17T06:39:06;7.80;99.90
16970;DHT22;8601;48.718;8.992;2023-05-17T06:41:33;7.80;99.90
16970;DHT22;8601;48.718;8.992;2023-05-17T06:44:00;7.70;99.90
16970;DHT22;8601;48.718;8.992;2023-05-17T06:46:27;7.70;99.90
16970;DHT22;8601;48.718;8.992;2023-05-17T06:48:54;7.80;99.90
16970;DHT22;8601;48.718;8.992;2023-05-17T06:51:21;7.90;99.90
16970;DHT22;8601;48.718;8.992;2023-05-17T06:53:49;7.90;99.90
16970;DHT22;8601;48.718;8.992;2023-05-17T06:56:16;7.90;99.90
16970;DHT22;8601;48.718;8.992;2023-05-17T06:58:43;7.90;99.90
16970;DHT22;8601;48.718;8.992;2023-05-17T07:01:10;8.00;99.90
16970;DHT22;8601;48.718;8.992;2023-05-17T07:03:37;8.80;99.90
16970;DHT22;8601;48.718;8.992;2023-05-17T07:06:04;8.60;99.90
16970;DHT22;8601;48.718;8.992;2023-05-17T07:08:31;8.70;99.90
16970;DHT22;8601;48.718;8.992;2023-05-17T07:10:59;8.70;99.90
16970;DHT22;8601;48.718;8.992;2023-05-17T07:13:27;8.70;99.90
16970;DHT22;8601;48.718;8.992;2023-05-17T07:15:54;9.20;99.90
16970;DHT22;8601;48.718;8.992;2023-05-17T07:18:21;9.20;99.90
16970;DHT22;8601;48.718;8.992;2023-05-17T07:20:48;9.20;99.90
16970;DHT22;8601;48.718;8.992;2023-05-17T07:23:16;9.10;99.90
16970;DHT22;8601;48.718;8.992;2023-05-17T07:25:44;9.10;99.90
16970;DHT22;8601;48.718;8.992;2023-05-17T07:28:12;9.10;99.90
16970;DHT22;8601;48.718;8.992;2023-05-17T07:30:40;9.00;99.90
16970;DHT22;8601;48.718;8.992;2023-05-17T07:33:08;9.10;99.90
16970;DHT22;8601;48.718;8.992;2023-05-17T07:35:36;9.00;99.90
16970;DHT22;8601;48.718;8.992;2023-05-17T07:38:03;9.10;99.90
16970;DHT22;8601;48.718;8.992;2023-05-17T07:40:30;9.20;99.90
16970;DHT22;8601;48.718;8.992;2023-05-17T07:42:59;9.80;99.90
16970;DHT22;8601;48.718;8.992;2023-05-17T07:45:28;9.50;99.90
16970;DHT22;8601;48.718;8.992;2023-05-17T07:47:55;9.30;99.90
16970;DHT22;8601;48.718;8.992;2023-05-17T07:50:22;9.30;99.90
16970;DHT22;8601;48.718;8.992;2023-05-17T07:52:50;9.20;99.90
16970;DHT22;8601;48.718;8.992;2023-05-17T07:55:17;9.30;99.90
16970;DHT22;8601;48.718;8.992;2023-05-17T07:57:45;9.30;99.90
16970;DHT22;8601;48.718;8.992;2023-05-17T08:00:13;9.40;99.90
16970;DHT22;8601;48.718;8.992;2023-05-17T08:02:45;9.50;99.90
16970;DHT22;8601;48.718;8.992;2023-05-17T08:05:11;9.60;99.90
16970;DHT22;8601;48.718;8.992;2023-05-17T08:07:38;9.60;99.90
16970;DHT22;8601;48.718;8.992;2023-05-17T08:10:06;9.80;99.90
16970;DHT22;8601;48.718;8.992;2023-05-17T08:12:33;10.00;99.90
16970;DHT22;8601;48.718;8.992;2023-05-17T08:15:00;10.00;99.90
16970;DHT22;8601;48.718;8.992;2023-05-17T08:17:26;10.40;99.90
16970;DHT22;8601;48.718;8.992;2023-05-17T08:19:55;10.70;99.90
16970;DHT22;8601;48.718;8.992;2023-05-17T08:22:22;10.80;99.90
16970;DHT22;8601;48.718;8.992;2023-05-17T08:24:48;10.90;99.00
16970;DHT22;8601;48.718;8.992;2023-05-17T08:27:15;10.90;99.30
16970;DHT22;8601;48.718;8.992;2023-05-17T08:29:42;11.30;99.90
16970;DHT22;8601;48.718;8.992;2023-05-17T08:32:09;11.80;99.90
16970;DHT22;8601;48.718;8.992;2023-05-17T08:34:36;11.60;96.90
16970;DHT22;8601;48.718;8.992;2023-05-17T08:37:05;11.20;95.20
16970;DHT22;8601;48.718;8.992;2023-05-17T08:39:32;11.00;96.60
16970;DHT22;8601;48.718;8.992;2023-05-17T08:41:59;10.90;97.80
16970;DHT22;8601;48.718;8.992;2023-05-17T08:44:27;10.80;96.80
16970;DHT22;8601;48.718;8.992;2023-05-17T08:46:55;10.90;97.20
16970;DHT22;8601;48.718;8.992;2023-05-17T08:49:26;10.70;96.00
16970;DHT22;8601;48.718;8.992;2023-05-17T08:51:53;10.80;97.50
16970;DHT22;8601;48.718;8.992;2023-05-17T08:54:22;10.90;97.10
16970;DHT22;8601;48.718;8.992;2023-05-17T08:56:51;11.00;97.40
16970;DHT22;8601;48.718;8.992;2023-05-17T08:59:19;10.80;96.00
16970;DHT22;8601;48.718;8.992;2023-05-17T09:01:47;10.80;96.10
16970;DHT22;8601;48.718;8.992;2023-05-17T09:04:16;10.90;96.40
16970;DHT22;8601;48.718;8.992;2023-05-17T09:06:42;10.90;95.50
16970;DHT22;8601;48.718;8.992;2023-05-17T09:09:10;11.10;95.20
16970;DHT22;8601;48.718;8.992;2023-05-17T09:11:38;11.20;94.90
16970;DHT22;8601;48.718;8.992;2023-05-17T09:14:06;11.30;95.40
16970;DHT22;8601;48.718;8.992;2023-05-17T09:16:33;11.20;95.10
16970;DHT22;8601;48.718;8.992;2023-05-17T09:19:02;11.20;95.60
16970;DHT22;8601;48.718;8.992;2023-05-17T09:21:30;11.40;94.60
16970;DHT22;8601;48.718;8.992;2023-05-17T09:23:59;11.60;95.80
16970;DHT22;8601;48.718;8.992;2023-05-17T09:26:38;11.70;93.90
16970;DHT22;8601;48.718;8.992;2023-05-17T09:29:07;11.80;94.00
16970;DHT22;8601;48.718;8.992;2023-05-17T09:31:35;11.70;91.50
16970;DHT22;8601;48.718;8.992;2023-05-17T09:34:02;11.90;91.50
16970;DHT22;8601;48.718;8.992;2023-05-17T09:36:31;12.40;92.10
16970;DHT22;8601;48.718;8.992;2023-05-17T09:39:00;12.90;90.70
16970;DHT22;8601;48.718;8.992;2023-05-17T09:41:29;13.40;90.00
16970;DHT22;8601;48.718;8.992;2023-05-17T09:43:59;13.80;88.70
16970;DHT22;8601;48.718;8.992;2023-05-17T09:46:27;14.10;83.30
16970;DHT22;8601;48.718;8.992;2023-05-17T09:48:54;14.10;80.50
16970;DHT22;8601;48.718;8.992;2023-05-17T09:51:31;14.10;77.00
16970;DHT22;8601;48.718;8.992;2023-05-17T09:53:58;13.70;78.20
16970;DHT22;8601;48.718;8.992;2023-05-17T09:56:27;13.50;80.70
16970;DHT22;8601;48.718;8.992;2023-05-17T09:58:55;13.00;83.10
16970;DHT22;8601;48.718;8.992;2023-05-17T10:01:25;12.80;84.00
16970;DHT22;8601;48.718;8.992;2023-05-17T10:03:53;12.90;87.40
16970;DHT22;8601;48.718;8.992;2023-05-17T10:06:21;12.70;85.00
16970;DHT22;8601;48.718;8.992;2023-05-17T10:08:51;12.80;86.50
16970;DHT22;8601;48.718;8.992;2023-05-17T10:11:21;13.00;86.80
16970;DHT22;8601;48.718;8.992;2023-05-17T10:13:59;13.00;87.10
16970;DHT22;8601;48.718;8.992;2023-05-17T10:16:31;12.80;85.80
16970;DHT22;8601;48.718;8.992;2023-05-17T10:18:59;12.70;88.10
16970;DHT22;8601;48.718;8.992;2023-05-17T10:21:27;12.60;87.10
16970;DHT22;8601;48.718;8.992;2023-05-17T10:23:54;12.50;86.20
16970;DHT22;8601;48.718;8.992;2023-05-17T10:26:22;12.60;89.10
16970;DHT22;8601;48.718;8.992;2023-05-17T10:28:51;13.00;82.40
16970;DHT22;8601;48.718;8.992;2023-05-17T10:31:21;13.20;80.00
16970;DHT22;8601;48.718;8.992;2023-05-17T10:33:51;13.50;77.30
16970;DHT22;8601;48.718;8.992;2023-05-17T10:36:18;14.00;76.20
16970;DHT22;8601;48.718;8.992;2023-05-17T10:38:45;14.30;78.80
16970;DHT22;8601;48.718;8.992;2023-05-17T10:41:13;14.60;73.60
16970;DHT22;8601;48.718;8.992;2023-05-17T10:43:42;14.40;74.30
16970;DHT22;8601;48.718;8.992;2023-05-17T10:46:15;14.80;78.30
16970;DHT22;8601;48.718;8.992;2023-05-17T10:48:47;14.80;74.90
16970;DHT22;8601;48.718;8.992;2023-05-17T10:51:21;14.70;75.20
16970;DHT22;8601;48.718;8.992;2023-05-17T10:54:03;14.50;72.90
16970;DHT22;8601;48.718;8.992;2023-05-17T10:56:31;14.30;72.20
16970;DHT22;8601;48.718;8.992;2023-05-17T10:59:20;14.30;71.20
16970;DHT22;8601;48.718;8.992;2023-05-17T11:02:05;14.20;73.00
16970;DHT22;8601;48.718;8.992;2023-05-17T11:04:35;14.00;72.10
16970;DHT22;8601;48.718;8.992;2023-05-17T11:07:23;14.20;77.40
16970;DHT22;8601;48.718;8.992;2023-05-17T11:09:53;14.70;70.80
16970;DHT22;8601;48.718;8.992;2023-05-17T11:12:29;14.30;71.30
16970;DHT22;8601;48.718;8.992;2023-05-17T11:14:57;14.20;72.20
16970;DHT22;8601;48.718;8.992;2023-05-17T11:17:25;14.00;72.40
16970;DHT22;8601;48.718;8.992;2023-05-17T11:20:03;13.60;72.70
16970;DHT22;8601;48.718;8.992;2023-05-17T11:22:36;13.40;76.00
16970;DHT22;8601;48.718;8.992;2023-05-17T11:25:08;13.20;78.00
16970;DHT22;8601;48.718;8.992;2023-05-17T11:27:38;13.10;78.10
16970;DHT22;8601;48.718;8.992;2023-05-17T11:30:23;13.20;77.60
16970;DHT22;8601;48.718;8.992;2023-05-17T11:32:56;13.40;75.70
16970;DHT22;8601;48.718;8.992;2023-05-17T11:35:26;13.40;75.70
16970;DHT22;8601;48.718;8.992;2023-05-17T11:38:12;13.30;78.10
16970;DHT22;8601;48.718;8.992;2023-05-17T11:40:39;13.10;79.50
16970;DHT22;8601;48.718;8.992;2023-05-17T11:43:11;13.20;80.70
16970;DHT22;8601;48.718;8.992;2023-05-17T11:45:43;13.10;78.30
16970;DHT22;8601;48.718;8.992;2023-05-17T11:48:12;12.90;77.90
16970;DHT22;8601;48.718;8.992;2023-05-17T11:50:41;12.90;81.10
16970;DHT22;8601;48.718;8.992;2023-05-17T11:53:11;12.80;78.80
16970;DHT22;8601;48.718;8.992;2023-05-17T11:55:38;12.90;80.70
16970;DHT22;8601;48.718;8.992;2023-05-17T11:58:08;12.70;79.70
16970;DHT22;8601;48.718;8.992;2023-05-17T12:00:35;12.80;80.80
16970;DHT22;8601;48.718;8.992;2023-05-17T12:03:16;12.90;80.10
16970;DHT22;8601;48.718;8.992;2023-05-17T12:05:44;12.80;80.10
16970;DHT22;8601;48.718;8.992;2023-05-17T12:08:14;12.60;78.70
16970;DHT22;8601;48.718;8.992;2023-05-17T12:10:44;12.60;79.40
16970;DHT22;8601;48.718;8.992;2023-05-17T12:13:11;12.70;80.60
16970;DHT22;8601;48.718;8.992;2023-05-17T12:15:39;12.70;78.20
16970;DHT22;8601;48.718;8.992;2023-05-17T12:18:06;12.60;79.40
16970;DHT22;8601;48.718;8.992;2023-05-17T12:20:34;12.60;79.40
16970;DHT22;8601;48.718;8.992;2023-05-17T12:23:02;12.70;79.80
16970;DHT22;8601;48.718;8.992;2023-05-17T12:25:30;12.70;81.80
16970;DHT22;8601;48.718;8.992;2023-05-17T12:28:14;12.80;81.40
16970;DHT22;8601;48.718;8.992;2023-05-17T12:30:41;12.90;77.90
16970;DHT22;8601;48.718;8.992;2023-05-17T12:33:09;12.90;78.50
16970;DHT22;8601;48.718;8.992;2023-05-17T12:35:36;12.80;79.20
16970;DHT22;8601;48.718;8.992;2023-05-17T12:38:03;13.00;78.80
16970;DHT22;8601;48.718;8.992;2023-05-17T12:40:32;13.10;76.50
16970;DHT22;8601;48.718;8.992;2023-05-17T12:43:01;13.40;76.40
16970;DHT22;8601;48.718;8.992;2023-05-17T12:45:28;13.40;76.80
16970;DHT22;8601;48.718;8.992;2023-05-17T12:47:55;13.40;75.70
16970;DHT22;8601;48.718;8.992;2023-05-17T12:50:27;14.10;84.70
16970;DHT22;8601;48.718;8.992;2023-05-17T12:52:54;13.80;77.10
16970;DHT22;8601;48.718;8.992;2023-05-17T12:55:21;13.70;77.40
16970;DHT22;8601;48.718;8.992;2023-05-17T12:57:51;13.70;77.80
16970;DHT22;8601;48.718;8.992;2023-05-17T13:00:19;13.60;77.20
16970;DHT22;8601;48.718;8.992;2023-05-17T13:02:46;13.40;78.80
16970;DHT22;8601;48.718;8.992;2023-05-17T13:05:14;13.10;79.10
16970;DHT22;8601;48.718;8.992;2023-05-17T13:07:42;13.10;84.00
16970;DHT22;8601;48.718;8.992;2023-05-17T13:10:28;13.70;79.80
16970;DHT22;8601;48.718;8.992;2023-05-17T13:12:58;13.60;79.00
16970;DHT22;8601;48.718;8.992;2023-05-17T13:15:28;13.50;81.30
16970;DHT22;8601;48.718;8.992;2023-05-17T13:17:56;13.50;78.60
16970;DHT22;8601;48.718;8.992;2023-05-17T13:20:24;13.40;79.70
16970;DHT22;8601;48.718;8.992;2023-05-17T13:22:52;13.20;79.90
16970;DHT22;8601;48.718;8.992;2023-05-17T13:25:19;13.20;78.70
16970;DHT22;8601;48.718;8.992;2023-05-17T13:27:46;13.30;81.10
16970;DHT22;8601;48.718;8.992;2023-05-17T13:30:15;13.50;79.50
16970;DHT22;8601;48.718;8.992;2023-05-17T13:32:42;13.60;77.60
16970;DHT22;8601;48.718;8.992;2023-05-17T13:35:09;13.40;79.20
16970;DHT22;8601;48.718;8.992;2023-05-17T13:37:36;13.40;77.90
16970;DHT22;8601;48.718;8.992;2023-05-17T13:40:04;13.30;77.70
16970;DHT22;8601;48.718;8.992;2023-05-17T13:42:32;13.20;77.70
16970;DHT22;8601;48.718;8.992;2023-05-17T13:44:59;13.00;76.50
16970;DHT22;8601;48.718;8.992;2023-05-17T13:47:28;13.00;77.20
16970;DHT22;8601;48.718;8.992;2023-05-17T13:49:57;12.90;77.30
16970;DHT22;8601;48.718;8.992;2023-05-17T13:52:25;13.00;76.90
16970;DHT22;8601;48.718;8.992;2023-05-17T13:54:52;12.90;77.40
16970;DHT22;8601;48.718;8.992;2023-05-17T13:57:19;12.90;80.20
16970;DHT22;8601;48.718;8.992;2023-05-17T13:59:46;13.10;80.50
16970;DHT22;8601;48.718;8.992;2023-05-17T14:02:13;13.00;79.00
16970;DHT22;8601;48.718;8.992;2023-05-17T14:04:41;12.90;78.50
16970;DHT22;8601;48.718;8.992;2023-05-17T14:07:08;12.90;79.70
16970;DHT22;8601;48.718;8.992;2023-05-17T14:09:35;12.90;80.20
16970;DHT22;8601;48.718;8.992;2023-05-17T14:12:02;12.80;78.80
16970;DHT22;8601;48.718;8.992;2023-05-17T14:14:29;12.90;78.90
16970;DHT22;8601;48.718;8.992;2023-05-17T14:16:56;13.00;80.50
16970;DHT22;8601;48.718;8.992;2023-05-17T14:19:23;13.10;80.80
16970;DHT22;8601;48.718;8.992;2023-05-17T14:21:55;13.00;78.70
16970;DHT22;8601;48.718;8.992;2023-05-17T14:24:22;12.70;78.50
16970;DHT22;8601;48.718;8.992;2023-05-17T14:26:49;12.60;79.00
16970;DHT22;8601;48.718;8.992;2023-05-17T14:29:16;12.60;80.80
16970;DHT22;8601;48.718;8.992;2023-05-17T14:31:42;12.60;82.10
16970;DHT22;8601;48.718;8.992;2023-05-17T14:34:09;12.70;81.00
16970;DHT22;8601;48.718;8.992;2023-05-17T14:36:36;12.60;80.90
16970;DHT22;8601;48.718;8.992;2023-05-17T14:39:05;12.50;80.00
16970;DHT22;8601;48.718;8.992;2023-05-17T14:41:32;12.50;82.00
16970;DHT22;8601;48.718;8.992;2023-05-17T14:43:59;12.50;79.70
16970;DHT22;8601;48.718;8.992;2023-05-17T14:46:25;12.40;80.20
16970;DHT22;8601;48.718;8.992;2023-05-17T14:48:52;12.40;79.80
16970;DHT22;8601;48.718;8.992;2023-05-17T14:51:20;12.50;82.20
16970;DHT22;8601;48.718;8.992;2023-05-17T14:53:48;12.50;80.00
16970;DHT22;8601;48.718;8.992;2023-05-17T14:56:16;12.60;80.60
16970;DHT22;8601;48.718;8.992;2023-05-17T14:58:43;12.30;80.10
16970;DHT22;8601;48.718;8.992;2023-05-17T15:01:10;12.30;80.90
16970;DHT22;8601;48.718;8.992;2023-05-17T15:03:38;12.40;80.00
16970;DHT22;8601;48.718;8.992;2023-05-17T15:06:06;12.60;84.00
16970;DHT22;8601;48.718;8.992;2023-05-17T15:08:33;12.70;80.80
16970;DHT22;8601;48.718;8.992;2023-05-17T15:11:01;12.60;77.50
16970;DHT22;8601;48.718;8.992;2023-05-17T15:13:29;12.70;81.20
16970;DHT22;8601;48.718;8.992;2023-05-17T15:15:56;12.70;81.10
16970;DHT22;8601;48.718;8.992;2023-05-17T15:18:24;12.60;79.10
16970;DHT22;8601;48.718;8.992;2023-05-17T15:20:51;12.50;81.20
16970;DHT22;8601;48.718;8.992;2023-05-17T15:23:18;12.50;80.50
16970;DHT22;8601;48.718;8.992;2023-05-17T15:25:46;12.50;81.20
16970;DHT22;8601;48.718;8.992;2023-05-17T15:28:13;12.50;81.00
16970;DHT22;8601;48.718;8.992;2023-05-17T15:30:42;12.50;82.00
16970;DHT22;8601;48.718;8.992;2023-05-17T15:33:08;12.40;80.70
16970;DHT22;8601;48.718;8.992;2023-05-17T15:35:35;12.30;82.60
16970;DHT22;8601;48.718;8.992;2023-05-17T15:38:05;12.60;87.60
16970;DHT22;8601;48.718;8.992;2023-05-17T15:40:32;12.30;81.90
16970;DHT22;8601;48.718;8.992;2023-05-17T15:42:59;12.20;81.20
16970;DHT22;8601;48.718;8.992;2023-05-17T15:45:26;12.20;82.90
16970;DHT22;8601;48.718;8.992;2023-05-17T15:47:55;12.20;81.50
16970;DHT22;8601;48.718;8.992;2023-05-17T15:50:22;12.10;84.00
16970;DHT22;8601;48.718;8.992;2023-05-17T15:52:49;12.00;82.10
16970;DHT22;8601;48.718;8.992;2023-05-17T15:55:16;12.10;82.30
16970;DHT22;8601;48.718;8.992;2023-05-17T15:57:43;12.10;81.80
16970;DHT22;8601;48.718;8.992;2023-05-17T16:00:11;12.20;83.00
16970;DHT22;8601;48.718;8.992;2023-05-17T16:02:39;12.30;83.70